Time;durP1;ratioP1;P1;durP2;ratioP2;P2;SDS_P1;SDS_P2;PMS_P1;PMS_P2;Temp;Humidity;BMP_temperature;BMP_pressure;BME280_temperature;BME280_humidity;BME280_pressure;Samples;Min_cycle;Max_cycle;Signal;HPM_P1;HPM_P2
2020/12/30 00:00:49;;;;;;;;;;;19.40;99.90;;;;;;5035676;28;19909;-83
2020/12/30 00:03:16;;;;;;;;;;;19.40;99.90;;;;;;5035043;28;19970;-82
2020/12/30 00:05:52;;;;;;;;;;;19.50;99.90;;;;;;5017115;28;19993;-81
2020/12/30 00:08:27;;;;;;;;;;;19.70;99.90;;;;;;5017889;28;19928;-84
2020/12/30 00:11:00;;;;;;;;;;;19.90;99.90;;;;;;5031262;28;20003;-83
2020/12/30 00:13:28;;;;;;;;;;;20.10;99.90;;;;;;5055401;28;20279;-80
2020/12/30 00:15:54;;;;;;;;;;;20.30;99.90;;;;;;5054510;28;20286;-80
2020/12/30 00:18:21;;;;;;;;;;;20.40;99.90;;;;;;5036997;28;20394;-80
2020/12/30 00:20:48;;;;;;;;;;;20.50;99.90;;;;;;5055240;28;20345;-80
2020/12/30 00:23:15;;;;;;;;;;;20.50;99.90;;;;;;5054786;28;19917;-81
2020/12/30 00:25:42;;;;;;;;;;;20.60;99.60;;;;;;5036831;28;20371;-81
2020/12/30 00:28:08;;;;;;;;;;;20.70;98.10;;;;;;5054375;28;20011;-80
2020/12/30 00:30:35;;;;;;;;;;;20.80;98.10;;;;;;5054586;28;19916;-81
2020/12/30 00:33:02;;;;;;;;;;;20.90;98.80;;;;;;5054491;28;19909;-80
2020/12/30 00:35:28;;;;;;;;;;;21.10;98.40;;;;;;5054332;28;19955;-80
2020/12/30 00:37:55;;;;;;;;;;;21.20;97.30;;;;;;5054745;28;19909;-80
2020/12/30 00:40:22;;;;;;;;;;;21.40;96.70;;;;;;5054426;28;19916;-80
2020/12/30 00:42:48;;;;;;;;;;;21.50;97.30;;;;;;5054665;28;19917;-81
2020/12/30 00:45:15;;;;;;;;;;;21.40;97.40;;;;;;5059597;28;19909;-80
2020/12/30 00:47:42;;;;;;;;;;;21.50;96.90;;;;;;5070141;28;19920;-79
2020/12/30 00:50:09;;;;;;;;;;;21.50;96.20;;;;;;5055030;28;19909;-80
2020/12/30 00:52:36;;;;;;;;;;;21.60;96.20;;;;;;5053474;28;19953;-82
2020/12/30 00:55:11;;;;;;;;;;;21.70;97.00;;;;;;5054539;28;19909;-82
2020/12/30 00:57:38;;;;;;;;;;;21.80;97.20;;;;;;5054191;28;20375;-83
2020/12/30 01:00:05;;;;;;;;;;;21.80;96.10;;;;;;5053575;28;19962;-81
2020/12/30 01:02:31;;;;;;;;;;;21.90;96.90;;;;;;5035804;28;20393;-82
2020/12/30 01:04:58;;;;;;;;;;;21.80;96.70;;;;;;5053913;28;19948;-83
2020/12/30 01:07:25;;;;;;;;;;;21.80;97.10;;;;;;5053806;28;19928;-84
2020/12/30 01:09:51;;;;;;;;;;;21.80;96.80;;;;;;5032412;28;20299;-81
2020/12/30 01:12:18;;;;;;;;;;;21.90;96.10;;;;;;5033371;28;19916;-81
2020/12/30 01:14:45;;;;;;;;;;;22.10;96.90;;;;;;5034717;28;19936;-81
2020/12/30 01:17:12;;;;;;;;;;;22.10;96.60;;;;;;5057993;28;19913;-81
2020/12/30 01:19:38;;;;;;;;;;;22.10;96.50;;;;;;5074836;28;19912;-81
2020/12/30 01:22:05;;;;;;;;;;;22.10;95.90;;;;;;5055711;28;20313;-82
2020/12/30 01:24:32;;;;;;;;;;;22.20;96.50;;;;;;5054673;28;19909;-83
2020/12/30 01:26:58;;;;;;;;;;;22.30;96.30;;;;;;5054115;28;19913;-82
2020/12/30 01:29:25;;;;;;;;;;;22.40;96.10;;;;;;5055018;28;20282;-83
2020/12/30 01:31:53;;;;;;;;;;;22.40;95.80;;;;;;5054566;28;19913;-82
2020/12/30 01:34:20;;;;;;;;;;;22.50;94.80;;;;;;5053429;28;20465;-81
2020/12/30 01:36:51;;;;;;;;;;;22.50;95.70;;;;;;5058279;28;19913;-81
2020/12/30 01:39:17;;;;;;;;;;;22.50;95.10;;;;;;5055664;28;19952;-82
2020/12/30 01:41:44;;;;;;;;;;;22.50;93.70;;;;;;5052008;28;19918;-82
2020/12/30 01:44:11;;;;;;;;;;;22.60;94.80;;;;;;5052002;28;19928;-83
2020/12/30 01:46:41;;;;;;;;;;;22.70;95.40;;;;;;5051097;28;20378;-82
2020/12/30 01:49:12;;;;;;;;;;;22.90;94.20;;;;;;5032579;28;19913;-83
2020/12/30 01:51:40;;;;;;;;;;;23.10;92.90;;;;;;5046222;28;19913;-83
2020/12/30 01:54:16;;;;;;;;;;;23.10;93.60;;;;;;5033456;28;19913;-82
2020/12/30 01:56:43;;;;;;;;;;;23.10;92.80;;;;;;5032574;28;19920;-82
2020/12/30 01:59:11;;;;;;;;;;;22.90;92.20;;;;;;5035317;28;20003;-82
2020/12/30 02:01:39;;;;;;;;;;;23.00;93.30;;;;;;5047286;28;19917;-82
2020/12/30 02:04:06;;;;;;;;;;;23.00;92.20;;;;;;5048073;28;20437;-81
2020/12/30 02:06:34;;;;;;;;;;;23.10;93.20;;;;;;5049412;28;19917;-81
2020/12/30 02:09:03;;;;;;;;;;;23.10;93.40;;;;;;5053339;28;20046;-83
2020/12/30 02:11:30;;;;;;;;;;;23.00;92.80;;;;;;5051864;28;19912;-82
2020/12/30 02:14:01;;;;;;;;;;;22.90;93.50;;;;;;5052883;28;19952;-82
2020/12/30 02:16:28;;;;;;;;;;;23.10;93.00;;;;;;5052396;28;19912;-82
2020/12/30 02:18:55;;;;;;;;;;;23.20;92.90;;;;;;5073797;28;19913;-82
2020/12/30 02:21:21;;;;;;;;;;;23.40;92.00;;;;;;5067814;28;19924;-83
2020/12/30 02:23:50;;;;;;;;;;;23.50;92.00;;;;;;5068970;28;20004;-82
2020/12/30 02:26:16;;;;;;;;;;;23.40;92.90;;;;;;5051613;28;20329;-82
2020/12/30 02:28:43;;;;;;;;;;;23.50;91.60;;;;;;5053659;28;20259;-83
2020/12/30 02:31:10;;;;;;;;;;;23.40;91.70;;;;;;5055721;28;19912;-83
2020/12/30 02:33:36;;;;;;;;;;;23.30;91.90;;;;;;5054232;28;19944;-84
2020/12/30 02:36:03;;;;;;;;;;;23.20;92.20;;;;;;5052644;28;19917;-84
2020/12/30 02:38:30;;;;;;;;;;;23.30;92.80;;;;;;5052773;28;19909;-85
2020/12/30 02:41:00;;;;;;;;;;;23.30;91.60;;;;;;5052565;28;19921;-84
2020/12/30 02:43:27;;;;;;;;;;;23.20;92.60;;;;;;5054035;28;19963;-85
2020/12/30 02:45:55;;;;;;;;;;;23.10;91.60;;;;;;5056115;28;19909;-84
2020/12/30 02:48:21;;;;;;;;;;;23.00;92.30;;;;;;5068357;28;19936;-84
2020/12/30 02:50:48;;;;;;;;;;;23.00;92.40;;;;;;5055069;28;19923;-84
2020/12/30 02:53:15;;;;;;;;;;;23.00;91.60;;;;;;5035222;28;20004;-85
2020/12/30 02:55:41;;;;;;;;;;;23.00;91.90;;;;;;5047228;28;19979;-82
2020/12/30 02:58:10;;;;;;;;;;;23.00;91.70;;;;;;5034412;28;19973;-83
2020/12/30 03:00:36;;;;;;;;;;;22.90;91.30;;;;;;5049231;28;20382;-82
2020/12/30 03:03:03;;;;;;;;;;;22.80;91.90;;;;;;5032836;28;19921;-84
2020/12/30 03:05:30;;;;;;;;;;;22.80;92.40;;;;;;5051764;28;19952;-84
2020/12/30 03:07:56;;;;;;;;;;;22.80;91.90;;;;;;5052225;28;19960;-85
2020/12/30 03:10:23;;;;;;;;;;;22.90;91.90;;;;;;5049359;28;19912;-85
2020/12/30 03:12:50;;;;;;;;;;;22.90;91.40;;;;;;5052731;28;19921;-85
2020/12/30 03:15:17;;;;;;;;;;;22.90;91.30;;;;;;5055376;28;19913;-85
2020/12/30 03:17:43;;;;;;;;;;;22.90;92.40;;;;;;5055043;28;19913;-86
2020/12/30 03:20:10;;;;;;;;;;;23.00;91.50;;;;;;5036429;28;19909;-84
2020/12/30 03:22:37;;;;;;;;;;;23.00;92.40;;;;;;5053028;28;19928;-83
2020/12/30 03:25:07;;;;;;;;;;;23.20;92.00;;;;;;5052945;28;19908;-81
2020/12/30 03:27:34;;;;;;;;;;;23.40;91.90;;;;;;5052838;28;20367;-84
2020/12/30 03:30:01;;;;;;;;;;;23.40;91.60;;;;;;5053011;28;19912;-83
2020/12/30 03:32:27;;;;;;;;;;;23.30;91.60;;;;;;5034466;28;19933;-82
2020/12/30 03:34:54;;;;;;;;;;;23.20;91.30;;;;;;5053010;28;19990;-84
2020/12/30 03:37:21;;;;;;;;;;;23.30;91.20;;;;;;5052560;28;19933;-83
2020/12/30 03:39:49;;;;;;;;;;;23.10;91.10;;;;;;5048910;28;19917;-83
2020/12/30 03:42:15;;;;;;;;;;;23.10;91.50;;;;;;5052708;28;19909;-82
2020/12/30 03:44:42;;;;;;;;;;;23.10;91.60;;;;;;5042282;28;19913;-83
2020/12/30 03:47:09;;;;;;;;;;;23.10;92.50;;;;;;5032892;28;19909;-83
2020/12/30 03:49:35;;;;;;;;;;;23.20;92.30;;;;;;5046370;28;19912;-82
2020/12/30 03:52:03;;;;;;;;;;;23.00;90.40;;;;;;5052646;28;19908;-82
2020/12/30 03:54:30;;;;;;;;;;;22.90;91.80;;;;;;5052971;28;19944;-82
2020/12/30 03:56:56;;;;;;;;;;;22.90;92.10;;;;;;5052716;28;19909;-82
2020/12/30 03:59:23;;;;;;;;;;;23.00;92.00;;;;;;5052892;28;19967;-83
2020/12/30 04:01:50;;;;;;;;;;;22.90;91.80;;;;;;5053294;28;20325;-83
2020/12/30 04:04:17;;;;;;;;;;;22.90;92.90;;;;;;5053396;28;20020;-81
2020/12/30 04:06:44;;;;;;;;;;;22.80;91.80;;;;;;5048383;28;19917;-82
2020/12/30 04:09:11;;;;;;;;;;;22.80;92.20;;;;;;5038697;28;19916;-83
2020/12/30 04:11:37;;;;;;;;;;;22.80;92.30;;;;;;5056604;28;19936;-84
2020/12/30 04:14:04;;;;;;;;;;;22.80;92.60;;;;;;5047434;28;19913;-82
2020/12/30 04:16:31;;;;;;;;;;;22.90;92.70;;;;;;5055838;28;19988;-84
2020/12/30 04:18:57;;;;;;;;;;;22.90;92.70;;;;;;5055944;28;19924;-84
2020/12/30 04:21:25;;;;;;;;;;;22.80;92.80;;;;;;5055465;28;19912;-83
2020/12/30 04:23:54;;;;;;;;;;;22.90;93.30;;;;;;5056686;28;19917;-84
2020/12/30 04:26:21;;;;;;;;;;;22.80;93.00;;;;;;5057160;28;19970;-83
2020/12/30 04:28:48;;;;;;;;;;;22.80;92.90;;;;;;5056159;28;19958;-83
2020/12/30 04:31:16;;;;;;;;;;;22.80;93.10;;;;;;5055574;28;19912;-84
2020/12/30 04:33:43;;;;;;;;;;;22.80;93.00;;;;;;5063023;28;19944;-84
2020/12/30 04:36:10;;;;;;;;;;;22.80;93.00;;;;;;5074541;28;20393;-84
2020/12/30 04:38:37;;;;;;;;;;;22.80;93.30;;;;;;5058348;28;20014;-85
2020/12/30 04:41:06;;;;;;;;;;;22.70;93.00;;;;;;5066485;28;20311;-82
2020/12/30 04:43:34;;;;;;;;;;;22.60;92.40;;;;;;5066815;28;19921;-84
2020/12/30 04:46:02;;;;;;;;;;;22.60;93.00;;;;;;5067809;28;19959;-83
2020/12/30 04:48:30;;;;;;;;;;;22.40;92.90;;;;;;5064225;28;20379;-81
2020/12/30 04:50:57;;;;;;;;;;;22.40;93.60;;;;;;5060036;28;20007;-83
2020/12/30 04:53:24;;;;;;;;;;;22.30;93.30;;;;;;5038098;28;19909;-83
2020/12/30 04:55:51;;;;;;;;;;;22.40;93.10;;;;;;5037334;28;20357;-83
2020/12/30 04:58:18;;;;;;;;;;;22.40;93.10;;;;;;5050273;28;19923;-83
2020/12/30 05:00:48;;;;;;;;;;;22.40;92.10;;;;;;5054714;28;19921;-84
2020/12/30 05:03:15;;;;;;;;;;;22.50;92.40;;;;;;5055495;28;19921;-85
2020/12/30 05:05:42;;;;;;;;;;;22.50;92.60;;;;;;5054900;28;19913;-83
2020/12/30 05:08:13;;;;;;;;;;;22.60;92.70;;;;;;5054112;28;20260;-85
2020/12/30 05:10:40;;;;;;;;;;;22.60;92.20;;;;;;5055456;28;19960;-87
2020/12/30 05:13:07;;;;;;;;;;;22.50;92.60;;;;;;5055610;28;19916;-86
2020/12/30 05:15:34;;;;;;;;;;;22.30;92.40;;;;;;5055438;28;19912;-84
2020/12/30 05:18:05;;;;;;;;;;;22.20;92.80;;;;;;5054711;28;19913;-87
2020/12/30 05:20:35;;;;;;;;;;;22.20;92.90;;;;;;5055569;28;19944;-83
2020/12/30 05:23:03;;;;;;;;;;;22.10;92.80;;;;;;5057383;28;19917;-87
2020/12/30 05:25:30;;;;;;;;;;;22.10;92.90;;;;;;5046315;28;19952;-86
2020/12/30 05:27:58;;;;;;;;;;;22.00;92.70;;;;;;5061874;28;20023;-85
2020/12/30 05:30:25;;;;;;;;;;;22.00;93.40;;;;;;5058277;28;19909;-86
2020/12/30 05:32:52;;;;;;;;;;;21.90;93.30;;;;;;5056089;28;19912;-84
2020/12/30 05:35:20;;;;;;;;;;;21.80;93.50;;;;;;5037262;28;20315;-88
2020/12/30 05:37:48;;;;;;;;;;;21.80;93.60;;;;;;5061731;28;20003;-84
2020/12/30 05:40:24;;;;;;;;;;;21.80;93.50;;;;;;5064686;28;20417;-87
2020/12/30 05:42:52;;;;;;;;;;;21.70;94.10;;;;;;5053967;28;19967;-86
2020/12/30 05:45:19;;;;;;;;;;;21.60;94.00;;;;;;5070699;28;19913;-83
2020/12/30 05:47:46;;;;;;;;;;;21.50;94.10;;;;;;5074472;28;19909;-83
2020/12/30 05:50:21;;;;;;;;;;;21.50;94.50;;;;;;5075159;28;20377;-85
2020/12/30 05:52:48;;;;;;;;;;;21.50;94.30;;;;;;5051291;28;19917;-80
2020/12/30 05:55:15;;;;;;;;;;;21.50;94.50;;;;;;5053339;28;19924;-84
2020/12/30 05:57:42;;;;;;;;;;;21.50;94.50;;;;;;5062819;28;19920;-84
2020/12/30 06:00:10;;;;;;;;;;;21.50;94.60;;;;;;5049739;28;19935;-84
2020/12/30 06:02:40;;;;;;;;;;;21.60;93.90;;;;;;5045948;28;20331;-83
2020/12/30 06:05:08;;;;;;;;;;;21.50;93.30;;;;;;5034961;28;19962;-87
2020/12/30 06:07:39;;;;;;;;;;;21.50;93.50;;;;;;5016986;28;19921;-85
2020/12/30 06:10:07;;;;;;;;;;;21.50;93.60;;;;;;5056362;28;19919;-84
2020/12/30 06:12:43;;;;;;;;;;;21.50;93.60;;;;;;5056278;28;19921;-87
2020/12/30 06:15:17;;;;;;;;;;;21.50;93.70;;;;;;5052053;28;19959;-83
2020/12/30 06:18:03;;;;;;;;;;;21.60;93.70;;;;;;5011852;28;20339;-86
2020/12/30 06:20:33;;;;;;;;;;;21.60;93.60;;;;;;5063207;28;19908;-83
2020/12/30 06:23:06;;;;;;;;;;;21.50;93.20;;;;;;5067983;28;19980;-87
2020/12/30 06:25:33;;;;;;;;;;;21.50;93.20;;;;;;5061002;28;19908;-80
2020/12/30 06:28:09;;;;;;;;;;;21.40;93.70;;;;;;5055045;28;19909;-82
2020/12/30 06:30:37;;;;;;;;;;;21.50;93.30;;;;;;5034637;28;19908;-83
2020/12/30 06:33:04;;;;;;;;;;;21.50;93.00;;;;;;5052745;28;19997;-81
2020/12/30 06:35:31;;;;;;;;;;;21.50;93.10;;;;;;5053402;28;19909;-78
2020/12/30 06:37:58;;;;;;;;;;;21.40;92.70;;;;;;5051015;28;20268;-82
2020/12/30 06:40:26;;;;;;;;;;;21.40;92.90;;;;;;5052771;28;19913;-83
2020/12/30 06:43:00;;;;;;;;;;;21.40;92.90;;;;;;5053098;28;20338;-89
2020/12/30 06:45:45;;;;;;;;;;;21.40;92.60;;;;;;5039310;28;19972;-88
2020/12/30 06:48:12;;;;;;;;;;;21.30;92.60;;;;;;5045636;28;19913;-87
2020/12/30 06:50:40;;;;;;;;;;;21.30;92.70;;;;;;5051391;28;19956;-89
2020/12/30 06:54:08;;;;;;;;;;;21.30;93.00;;;;;;5040616;28;20017;-88
2020/12/30 06:56:39;;;;;;;;;;;21.30;92.40;;;;;;4970173;29;19915;-86
2020/12/30 06:59:09;;;;;;;;;;;21.30;92.90;;;;;;4963262;28;20344;-87
2020/12/30 07:01:54;;;;;;;;;;;21.30;92.80;;;;;;5045619;28;19963;-88
2020/12/30 07:04:22;;;;;;;;;;;21.30;92.60;;;;;;5042699;28;19935;-89
2020/12/30 07:06:48;;;;;;;;;;;21.20;92.20;;;;;;5052886;28;19932;-88
2020/12/30 07:09:15;;;;;;;;;;;21.30;92.40;;;;;;5055382;28;19959;-84
2020/12/30 07:11:50;;;;;;;;;;;21.30;92.20;;;;;;5050447;28;19915;-86
2020/12/30 07:14:21;;;;;;;;;;;21.30;92.40;;;;;;5052769;28;20050;-82
2020/12/30 07:16:48;;;;;;;;;;;21.30;92.60;;;;;;5052951;28;19920;-84
2020/12/30 07:19:41;;;;;;;;;;;21.30;92.70;;;;;;5052862;28;19912;-86
2020/12/30 07:22:08;;;;;;;;;;;21.30;93.00;;;;;;5048953;28;19917;-82
2020/12/30 07:24:34;;;;;;;;;;;21.20;93.00;;;;;;5053068;28;19939;-83
2020/12/30 07:27:05;;;;;;;;;;;21.20;93.10;;;;;;5052271;28;20374;-84
2020/12/30 07:29:32;;;;;;;;;;;21.10;93.00;;;;;;5052478;28;19913;-85
2020/12/30 07:31:59;;;;;;;;;;;21.10;92.90;;;;;;5053123;28;19909;-82
2020/12/30 07:34:30;;;;;;;;;;;21.10;93.30;;;;;;5054243;28;19925;-81
2020/12/30 07:36:57;;;;;;;;;;;21.00;93.10;;;;;;5042771;28;19916;-83
2020/12/30 07:39:26;;;;;;;;;;;21.00;93.40;;;;;;5056256;28;19913;-84
2020/12/30 07:42:23;;;;;;;;;;;;;;;;;;;;;
2020/12/30 07:45:37;;;;;;;;;;;21.00;93.80;;;;;;5035826;28;19917;-85
2020/12/30 07:48:09;;;;;;;;;;;21.00;93.70;;;;;;5052214;28;20398;-83
2020/12/30 07:50:51;;;;;;;;;;;21.00;93.50;;;;;;5057063;28;19912;-82
2020/12/30 07:53:18;;;;;;;;;;;21.00;93.80;;;;;;5040910;28;20000;-82
2020/12/30 07:55:45;;;;;;;;;;;21.10;93.30;;;;;;5058981;28;19919;-83
2020/12/30 07:58:11;;;;;;;;;;;21.00;93.30;;;;;;5055262;28;19948;-83
2020/12/30 08:00:39;;;;;;;;;;;21.00;93.00;;;;;;5054267;28;19970;-83
2020/12/30 08:03:06;;;;;;;;;;;21.00;93.30;;;;;;5056389;28;19932;-84
2020/12/30 08:05:34;;;;;;;;;;;21.10;93.40;;;;;;5056458;28;20260;-82
2020/12/30 08:08:09;;;;;;;;;;;21.00;93.30;;;;;;5056617;28;19921;-83
2020/12/30 08:10:36;;;;;;;;;;;21.10;93.10;;;;;;5058367;28;19920;-84
2020/12/30 08:13:10;;;;;;;;;;;21.10;93.70;;;;;;5059616;28;19909;-83
2020/12/30 08:15:36;;;;;;;;;;;21.10;93.40;;;;;;5056064;28;20043;-83
2020/12/30 08:18:03;;;;;;;;;;;21.10;93.10;;;;;;5057264;28;19962;-85
2020/12/30 08:20:30;;;;;;;;;;;21.10;93.50;;;;;;5057119;28;19916;-82
2020/12/30 08:22:57;;;;;;;;;;;21.10;93.70;;;;;;5038916;28;19917;-81
2020/12/30 08:25:24;;;;;;;;;;;21.00;93.60;;;;;;5054838;28;19920;-79
2020/12/30 08:27:51;;;;;;;;;;;21.00;93.10;;;;;;5054807;28;20016;-81
2020/12/30 08:30:18;;;;;;;;;;;21.00;93.80;;;;;;5054155;28;19920;-81
2020/12/30 08:32:50;;;;;;;;;;;21.00;93.40;;;;;;5034691;28;20601;-82
2020/12/30 08:35:21;;;;;;;;;;;21.00;93.50;;;;;;5047840;28;19913;-81
2020/12/30 08:37:51;;;;;;;;;;;21.00;93.70;;;;;;5053755;28;19948;-82
2020/12/30 08:40:22;;;;;;;;;;;20.90;93.80;;;;;;5052475;28;20275;-81
2020/12/30 08:42:55;;;;;;;;;;;20.90;93.50;;;;;;5055759;28;19929;-81
2020/12/30 08:45:26;;;;;;;;;;;20.90;93.60;;;;;;5056431;28;19954;-82
2020/12/30 08:47:54;;;;;;;;;;;20.80;93.90;;;;;;5037719;28;19916;-85
2020/12/30 08:50:23;;;;;;;;;;;20.80;94.00;;;;;;5054724;28;19995;-84
2020/12/30 08:52:51;;;;;;;;;;;20.80;93.90;;;;;;5054899;28;20267;-86
2020/12/30 08:55:18;;;;;;;;;;;20.80;94.10;;;;;;5055224;28;19916;-84
2020/12/30 08:57:45;;;;;;;;;;;20.70;94.10;;;;;;5048823;28;19919;-81
2020/12/30 09:00:12;;;;;;;;;;;20.70;94.60;;;;;;5037078;28;20396;-84
2020/12/30 09:02:38;;;;;;;;;;;20.70;94.90;;;;;;5037364;28;19920;-86
2020/12/30 09:05:05;;;;;;;;;;;20.70;94.50;;;;;;5069901;28;20398;-85
2020/12/30 09:07:32;;;;;;;;;;;20.60;94.60;;;;;;5045797;28;20006;-85
2020/12/30 09:10:02;;;;;;;;;;;20.60;95.20;;;;;;5057497;28;19913;-84
2020/12/30 09:12:28;;;;;;;;;;;20.60;95.20;;;;;;5035660;28;20398;-84
2020/12/30 09:14:55;;;;;;;;;;;20.60;95.20;;;;;;5042466;28;19974;-83
2020/12/30 09:17:22;;;;;;;;;;;20.60;95.50;;;;;;5055650;28;19913;-84
2020/12/30 09:19:49;;;;;;;;;;;20.60;95.40;;;;;;5042122;28;19920;-84
2020/12/30 09:22:15;;;;;;;;;;;20.50;95.80;;;;;;5037328;28;19999;-82
2020/12/30 09:24:43;;;;;;;;;;;20.60;95.60;;;;;;5054764;28;20325;-85
2020/12/30 09:27:35;;;;;;;;;;;20.50;95.50;;;;;;5054659;28;19945;-83
2020/12/30 09:30:13;;;;;;;;;;;20.50;95.60;;;;;;5039643;28;20301;-84
2020/12/30 09:32:40;;;;;;;;;;;20.40;95.90;;;;;;5052534;28;19916;-85
2020/12/30 09:35:08;;;;;;;;;;;20.40;96.30;;;;;;5053703;28;20334;-84
2020/12/30 09:37:35;;;;;;;;;;;20.40;96.40;;;;;;5050566;28;20345;-82
2020/12/30 09:40:05;;;;;;;;;;;20.40;96.50;;;;;;5052464;28;19912;-85
2020/12/30 09:42:32;;;;;;;;;;;20.40;96.80;;;;;;5053342;28;19938;-81
2020/12/30 09:44:58;;;;;;;;;;;20.40;96.90;;;;;;5054346;28;19917;-85
2020/12/30 09:47:25;;;;;;;;;;;20.30;96.80;;;;;;5054192;28;19909;-84
2020/12/30 09:49:52;;;;;;;;;;;20.30;97.00;;;;;;5052282;28;19912;-83
2020/12/30 09:52:18;;;;;;;;;;;20.30;97.20;;;;;;5052372;28;19908;-84
2020/12/30 09:54:45;;;;;;;;;;;20.30;96.90;;;;;;5052384;28;19909;-84
2020/12/30 09:57:12;;;;;;;;;;;20.30;97.20;;;;;;5052743;28;19995;-84
2020/12/30 09:59:39;;;;;;;;;;;20.20;97.00;;;;;;5052560;28;19962;-83
2020/12/30 10:02:05;;;;;;;;;;;20.20;96.80;;;;;;5051913;28;19919;-84
2020/12/30 10:04:32;;;;;;;;;;;20.30;97.20;;;;;;5053388;28;19917;-84
2020/12/30 10:06:59;;;;;;;;;;;20.20;97.10;;;;;;5064270;28;20362;-83
2020/12/30 10:09:25;;;;;;;;;;;20.20;97.20;;;;;;5041174;28;19908;-85
2020/12/30 10:11:52;;;;;;;;;;;20.20;97.50;;;;;;5053248;28;19947;-84
2020/12/30 10:14:20;;;;;;;;;;;20.10;97.30;;;;;;5052655;28;19915;-84
2020/12/30 10:16:48;;;;;;;;;;;20.10;97.40;;;;;;5053039;28;19909;-84
2020/12/30 10:19:15;;;;;;;;;;;20.10;97.50;;;;;;5054749;28;19909;-84
2020/12/30 10:21:42;;;;;;;;;;;20.20;97.40;;;;;;5053923;28;19909;-83
2020/12/30 10:24:09;;;;;;;;;;;20.10;97.50;;;;;;5054559;28;19963;-84
2020/12/30 10:26:36;;;;;;;;;;;20.10;97.50;;;;;;5054512;28;20360;-84
2020/12/30 10:29:03;;;;;;;;;;;20.00;97.50;;;;;;5055099;28;19909;-85
2020/12/30 10:31:29;;;;;;;;;;;20.00;97.70;;;;;;5054250;28;19909;-84
2020/12/30 10:33:56;;;;;;;;;;;19.90;97.70;;;;;;5053974;28;20299;-84
2020/12/30 10:36:28;;;;;;;;;;;19.90;97.60;;;;;;5053581;28;19916;-84
2020/12/30 10:38:56;;;;;;;;;;;19.90;97.50;;;;;;5053992;28;19916;-82
2020/12/30 10:41:23;;;;;;;;;;;19.80;97.80;;;;;;5053825;28;19916;-84
2020/12/30 10:43:49;;;;;;;;;;;19.90;97.30;;;;;;5053934;28;20034;-84
2020/12/30 10:46:17;;;;;;;;;;;19.90;97.20;;;;;;5054451;28;19948;-84
2020/12/30 10:48:47;;;;;;;;;;;19.90;97.60;;;;;;5054384;28;20062;-84
2020/12/30 10:51:18;;;;;;;;;;;19.90;97.60;;;;;;5054548;28;20322;-84
2020/12/30 10:53:45;;;;;;;;;;;19.90;97.50;;;;;;5055759;28;19909;-85
2020/12/30 10:56:13;;;;;;;;;;;19.90;97.50;;;;;;5055748;28;19935;-85
2020/12/30 10:58:40;;;;;;;;;;;19.80;97.70;;;;;;5056185;28;20235;-85
2020/12/30 11:01:10;;;;;;;;;;;19.80;97.80;;;;;;5056862;28;19916;-86
2020/12/30 11:03:37;;;;;;;;;;;19.80;97.70;;;;;;5056526;28;19917;-85
2020/12/30 11:06:05;;;;;;;;;;;19.80;97.90;;;;;;5056970;28;20366;-85
2020/12/30 11:08:32;;;;;;;;;;;19.70;98.00;;;;;;5055480;28;19925;-84
2020/12/30 11:10:59;;;;;;;;;;;19.80;98.00;;;;;;5054542;28;20266;-85
2020/12/30 11:13:26;;;;;;;;;;;19.70;98.20;;;;;;5057631;28;19908;-84
2020/12/30 11:15:53;;;;;;;;;;;19.70;98.10;;;;;;5057691;28;20369;-84
2020/12/30 11:18:20;;;;;;;;;;;19.70;98.20;;;;;;5057557;28;19931;-83
2020/12/30 11:20:48;;;;;;;;;;;19.70;98.40;;;;;;5057382;28;20348;-83
2020/12/30 11:23:15;;;;;;;;;;;19.70;98.20;;;;;;5057253;28;19917;-84
2020/12/30 11:25:42;;;;;;;;;;;19.70;98.20;;;;;;5057503;28;19909;-84
2020/12/30 11:28:09;;;;;;;;;;;19.70;98.20;;;;;;5057947;28;19920;-84
2020/12/30 11:30:36;;;;;;;;;;;19.70;98.20;;;;;;5057299;28;19935;-84
2020/12/30 11:33:03;;;;;;;;;;;19.70;98.40;;;;;;5057161;28;20359;-83
2020/12/30 11:35:30;;;;;;;;;;;19.70;98.30;;;;;;5057130;28;20363;-84
2020/12/30 11:37:57;;;;;;;;;;;19.70;98.00;;;;;;5057020;28;19916;-84
2020/12/30 11:40:26;;;;;;;;;;;19.60;98.20;;;;;;5056867;28;19909;-84
2020/12/30 11:42:53;;;;;;;;;;;19.60;98.20;;;;;;5057016;28;19916;-84
2020/12/30 11:45:20;;;;;;;;;;;19.60;98.30;;;;;;5057137;28;19916;-85
2020/12/30 11:47:47;;;;;;;;;;;19.60;98.10;;;;;;5056841;28;20354;-85
2020/12/30 11:50:14;;;;;;;;;;;19.60;97.90;;;;;;5057203;28;19975;-84
2020/12/30 11:52:44;;;;;;;;;;;19.60;98.10;;;;;;5057133;28;19931;-85
2020/12/30 11:55:11;;;;;;;;;;;19.60;98.10;;;;;;5056847;28;19962;-85
2020/12/30 11:57:37;;;;;;;;;;;19.60;98.20;;;;;;5050121;28;19979;-87
2020/12/30 12:00:06;;;;;;;;;;;19.60;98.20;;;;;;5020029;28;20263;-85
2020/12/30 12:02:33;;;;;;;;;;;19.60;98.20;;;;;;5036356;28;19909;-84
2020/12/30 12:05:00;;;;;;;;;;;19.60;98.00;;;;;;5037006;28;20055;-86
2020/12/30 12:07:30;;;;;;;;;;;19.50;98.00;;;;;;5036674;28;19921;-83
2020/12/30 12:09:57;;;;;;;;;;;19.50;97.90;;;;;;5037341;28;19956;-81
2020/12/30 12:12:24;;;;;;;;;;;19.50;98.00;;;;;;5036607;28;20007;-87
2020/12/30 12:14:50;;;;;;;;;;;19.50;97.80;;;;;;5019732;28;19909;-92
2020/12/30 12:17:17;;;;;;;;;;;19.50;97.80;;;;;;5037671;28;20283;-89
2020/12/30 12:19:44;;;;;;;;;;;19.50;97.90;;;;;;5037631;28;20386;-89
2020/12/30 12:22:13;;;;;;;;;;;19.40;97.90;;;;;;5053671;28;20147;-89
2020/12/30 12:24:39;;;;;;;;;;;19.50;98.00;;;;;;5056019;28;20007;-85
2020/12/30 12:27:06;;;;;;;;;;;19.40;98.00;;;;;;5056642;28;19920;-89
2020/12/30 12:29:36;;;;;;;;;;;19.40;98.20;;;;;;5055907;28;19913;-82
2020/12/30 12:32:03;;;;;;;;;;;19.40;98.30;;;;;;5055139;28;20002;-85
2020/12/30 12:34:30;;;;;;;;;;;19.40;98.30;;;;;;5039717;28;20267;-91
2020/12/30 12:36:57;;;;;;;;;;;19.30;98.30;;;;;;5056063;28;19913;-89
2020/12/30 12:39:24;;;;;;;;;;;19.40;98.10;;;;;;5055361;28;20348;-83
2020/12/30 12:41:54;;;;;;;;;;;19.30;98.20;;;;;;5055852;28;20283;-90
2020/12/30 12:44:21;;;;;;;;;;;19.40;98.10;;;;;;5055753;28;20015;-82
2020/12/30 12:46:47;;;;;;;;;;;19.40;98.00;;;;;;5055835;28;19909;-87
2020/12/30 12:49:14;;;;;;;;;;;19.40;97.70;;;;;;5056277;28;19908;-88
2020/12/30 12:51:52;;;;;;;;;;;19.50;97.60;;;;;;5056242;28;19916;-88
2020/12/30 12:54:18;;;;;;;;;;;19.50;97.70;;;;;;5055969;28;19961;-87
2020/12/30 12:56:45;;;;;;;;;;;19.50;97.70;;;;;;5055713;28;20272;-85
2020/12/30 12:59:12;;;;;;;;;;;19.60;97.60;;;;;;5055888;28;19916;-86
2020/12/30 13:01:48;;;;;;;;;;;19.60;97.30;;;;;;5055694;28;19954;-87
2020/12/30 13:04:21;;;;;;;;;;;19.60;97.40;;;;;;5037904;28;19917;-87
2020/12/30 13:06:47;;;;;;;;;;;19.60;97.30;;;;;;5054272;28;19949;-87
2020/12/30 13:09:15;;;;;;;;;;;19.60;97.00;;;;;;5054988;28;19919;-87
2020/12/30 13:11:46;;;;;;;;;;;19.60;97.00;;;;;;5055805;28;20010;-87
2020/12/30 13:14:13;;;;;;;;;;;19.60;97.00;;;;;;5056013;28;19913;-87
2020/12/30 13:16:51;;;;;;;;;;;19.70;96.70;;;;;;5044707;28;19913;-87
2020/12/30 13:19:18;;;;;;;;;;;19.70;96.70;;;;;;5055923;28;19915;-89
2020/12/30 13:21:45;;;;;;;;;;;19.70;96.30;;;;;;5033356;28;20415;-88
2020/12/30 13:24:12;;;;;;;;;;;19.70;96.80;;;;;;5035282;28;20438;-87
2020/12/30 13:26:39;;;;;;;;;;;19.70;96.60;;;;;;5036187;28;19948;-88
2020/12/30 13:29:05;;;;;;;;;;;19.70;96.40;;;;;;5036276;28;19956;-86
2020/12/30 13:31:33;;;;;;;;;;;19.70;96.20;;;;;;5045681;28;19992;-88
2020/12/30 13:34:00;;;;;;;;;;;19.70;96.40;;;;;;5056123;28;19982;-85
2020/12/30 13:36:28;;;;;;;;;;;19.70;96.00;;;;;;5055154;28;20031;-88
2020/12/30 13:38:58;;;;;;;;;;;19.70;95.90;;;;;;5061070;28;20329;-86
2020/12/30 13:41:25;;;;;;;;;;;19.80;96.00;;;;;;5055363;28;19972;-85
2020/12/30 13:43:52;;;;;;;;;;;19.70;95.70;;;;;;5055229;28;20024;-87
2020/12/30 13:46:19;;;;;;;;;;;19.70;95.90;;;;;;5054376;28;20435;-84
2020/12/30 13:48:46;;;;;;;;;;;19.80;95.90;;;;;;5055222;28;19935;-87
2020/12/30 13:51:13;;;;;;;;;;;19.70;95.60;;;;;;5054616;28;20307;-87
2020/12/30 13:53:39;;;;;;;;;;;19.70;95.50;;;;;;5055210;28;19966;-87
2020/12/30 13:56:06;;;;;;;;;;;19.70;95.40;;;;;;5055662;28;19908;-87
2020/12/30 13:58:33;;;;;;;;;;;19.70;95.70;;;;;;5055400;28;19935;-88
2020/12/30 14:00:59;;;;;;;;;;;19.70;95.60;;;;;;5054764;28;19983;-86
2020/12/30 14:03:26;;;;;;;;;;;19.70;95.60;;;;;;5055566;28;19923;-87
2020/12/30 14:05:53;;;;;;;;;;;19.70;95.90;;;;;;5055435;28;20392;-88
2020/12/30 14:08:21;;;;;;;;;;;19.70;95.60;;;;;;5055088;28;19920;-87
2020/12/30 14:10:48;;;;;;;;;;;19.60;95.50;;;;;;5055180;28;19975;-86
2020/12/30 14:13:14;;;;;;;;;;;19.70;95.80;;;;;;5054289;28;19920;-85
2020/12/30 14:15:41;;;;;;;;;;;19.60;95.50;;;;;;5054090;28;19967;-86
2020/12/30 14:18:08;;;;;;;;;;;19.70;95.40;;;;;;5054435;28;19913;-84
2020/12/30 14:20:35;;;;;;;;;;;19.60;95.50;;;;;;5055188;28;19966;-88
2020/12/30 14:23:02;;;;;;;;;;;19.60;95.50;;;;;;5054749;28;19921;-87
2020/12/30 14:25:28;;;;;;;;;;;19.60;95.40;;;;;;5054345;28;19931;-88